sensor_id;sensor_type;location;lat;lon;timestamp;P1;durP1;ratioP1;P2;durP2;ratioP2
74044;SDS011;62389;51.412;5.436;2023-02-21T00:02:05;33.83;;;14.57;;
74044;SDS011;62389;51.412;5.436;2023-02-21T00:04:49;31.95;;;14.73;;
74044;SDS011;62389;51.412;5.436;2023-02-21T00:07:33;34.38;;;14.95;;
74044;SDS011;62389;51.412;5.436;2023-02-21T00:10:17;37.42;;;16.48;;
74044;SDS011;62389;51.412;5.436;2023-02-21T00:13:01;36.97;;;15.85;;
74044;SDS011;62389;51.412;5.436;2023-02-21T00:15:45;33.10;;;14.70;;
74044;SDS011;62389;51.412;5.436;2023-02-21T00:18:32;34.17;;;14.18;;
74044;SDS011;62389;51.412;5.436;2023-02-21T00:21:20;35.70;;;14.60;;
74044;SDS011;62389;51.412;5.436;2023-02-21T00:24:04;31.35;;;15.25;;
74044;SDS011;62389;51.412;5.436;2023-02-21T00:26:48;37.53;;;15.18;;
74044;SDS011;62389;51.412;5.436;2023-02-21T00:29:32;32.83;;;15.05;;
74044;SDS011;62389;51.412;5.436;2023-02-21T00:32:16;38.47;;;15.07;;
74044;SDS011;62389;51.412;5.436;2023-02-21T00:35:00;32.50;;;15.10;;
74044;SDS011;62389;51.412;5.436;2023-02-21T00:37:47;34.72;;;14.80;;
74044;SDS011;62389;51.412;5.436;2023-02-21T00:40:32;31.52;;;14.63;;
74044;SDS011;62389;51.412;5.436;2023-02-21T00:43:16;40.45;;;15.55;;
74044;SDS011;62389;51.412;5.436;2023-02-21T00:46:00;34.92;;;14.13;;
74044;SDS011;62389;51.412;5.436;2023-02-21T00:48:44;35.58;;;15.43;;
74044;SDS011;62389;51.412;5.436;2023-02-21T00:51:28;33.10;;;13.93;;
74044;SDS011;62389;51.412;5.436;2023-02-21T00:54:11;38.15;;;15.43;;
74044;SDS011;62389;51.412;5.436;2023-02-21T00:56:55;35.72;;;15.55;;
74044;SDS011;62389;51.412;5.436;2023-02-21T00:59:39;34.50;;;15.07;;
74044;SDS011;62389;51.412;5.436;2023-02-21T01:02:23;30.92;;;14.23;;
74044;SDS011;62389;51.412;5.436;2023-02-21T01:05:07;32.97;;;13.93;;
74044;SDS011;62389;51.412;5.436;2023-02-21T01:07:51;36.97;;;14.55;;
74044;SDS011;62389;51.412;5.436;2023-02-21T01:10:35;34.25;;;13.88;;
74044;SDS011;62389;51.412;5.436;2023-02-21T01:13:19;32.35;;;13.32;;
74044;SDS011;62389;51.412;5.436;2023-02-21T01:16:05;33.90;;;14.82;;
74044;SDS011;62389;51.412;5.436;2023-02-21T01:18:49;32.05;;;13.57;;
74044;SDS011;62389;51.412;5.436;2023-02-21T01:21:33;34.95;;;14.77;;
74044;SDS011;62389;51.412;5.436;2023-02-21T01:24:17;31.90;;;13.55;;
74044;SDS011;62389;51.412;5.436;2023-02-21T01:27:01;37.80;;;15.63;;
74044;SDS011;62389;51.412;5.436;2023-02-21T01:29:46;35.63;;;15.30;;
74044;SDS011;62389;51.412;5.436;2023-02-21T01:32:29;33.53;;;15.50;;
74044;SDS011;62389;51.412;5.436;2023-02-21T01:35:13;34.65;;;14.73;;
74044;SDS011;62389;51.412;5.436;2023-02-21T01:37:57;37.47;;;14.30;;
74044;SDS011;62389;51.412;5.436;2023-02-21T01:40:41;33.72;;;14.20;;
74044;SDS011;62389;51.412;5.436;2023-02-21T01:43:26;38.72;;;14.85;;
74044;SDS011;62389;51.412;5.436;2023-02-21T01:46:12;36.60;;;15.20;;
74044;SDS011;62389;51.412;5.436;2023-02-21T01:48:59;35.50;;;14.63;;
74044;SDS011;62389;51.412;5.436;2023-02-21T01:51:47;41.50;;;14.82;;
74044;SDS011;62389;51.412;5.436;2023-02-21T01:54:34;36.85;;;15.38;;
74044;SDS011;62389;51.412;5.436;2023-02-21T01:57:22;40.95;;;14.98;;
74044;SDS011;62389;51.412;5.436;2023-02-21T02:00:07;35.65;;;14.52;;
74044;SDS011;62389;51.412;5.436;2023-02-21T02:03:01;39.78;;;15.02;;
74044;SDS011;62389;51.412;5.436;2023-02-21T02:05:57;39.88;;;15.93;;
74044;SDS011;62389;51.412;5.436;2023-02-21T02:08:43;37.80;;;15.02;;
74044;SDS011;62389;51.412;5.436;2023-02-21T02:14:44;34.10;;;14.32;;
74044;SDS011;62389;51.412;5.436;2023-02-21T02:17:30;38.35;;;14.98;;
74044;SDS011;62389;51.412;5.436;2023-02-21T02:32:06;41.30;;;15.18;;
74044;SDS011;62389;51.412;5.436;2023-02-21T02:37:20;38.63;;;14.98;;
74044;SDS011;62389;51.412;5.436;2023-02-21T02:47:44;40.30;;;15.23;;
74044;SDS011;62389;51.412;5.436;2023-02-21T02:50:14;39.03;;;16.08;;
74044;SDS011;62389;51.412;5.436;2023-02-21T02:52:48;36.42;;;14.70;;
74044;SDS011;62389;51.412;5.436;2023-02-21T02:55:35;43.05;;;15.80;;
74044;SDS011;62389;51.412;5.436;2023-02-21T02:58:01;40.55;;;13.77;;
74044;SDS011;62389;51.412;5.436;2023-02-21T03:00:29;36.72;;;14.52;;
74044;SDS011;62389;51.412;5.436;2023-02-21T03:03:00;53.97;;;21.42;;
74044;SDS011;62389;51.412;5.436;2023-02-21T03:07:58;43.58;;;16.27;;
74044;SDS011;62389;51.412;5.436;2023-02-21T03:16:21;44.08;;;15.93;;
74044;SDS011;62389;51.412;5.436;2023-02-21T03:19:00;43.20;;;15.35;;
74044;SDS011;62389;51.412;5.436;2023-02-21T03:21:34;39.90;;;15.00;;
74044;SDS011;62389;51.412;5.436;2023-02-21T03:26:33;37.38;;;15.25;;
74044;SDS011;62389;51.412;5.436;2023-02-21T03:29:01;43.60;;;15.25;;
74044;SDS011;62389;51.412;5.436;2023-02-21T03:33:57;43.95;;;15.52;;
74044;SDS011;62389;51.412;5.436;2023-02-21T03:36:22;47.80;;;16.13;;
74044;SDS011;62389;51.412;5.436;2023-02-21T03:38:48;45.83;;;16.27;;
74044;SDS011;62389;51.412;5.436;2023-02-21T03:41:13;45.55;;;15.88;;
74044;SDS011;62389;51.412;5.436;2023-02-21T03:43:39;43.67;;;15.68;;
74044;SDS011;62389;51.412;5.436;2023-02-21T03:46:05;43.55;;;16.15;;
74044;SDS011;62389;51.412;5.436;2023-02-21T03:48:30;47.00;;;16.08;;
74044;SDS011;62389;51.412;5.436;2023-02-21T03:50:56;45.15;;;14.55;;
74044;SDS011;62389;51.412;5.436;2023-02-21T03:53:21;44.63;;;16.08;;
74044;SDS011;62389;51.412;5.436;2023-02-21T03:55:46;45.97;;;16.98;;
74044;SDS011;62389;51.412;5.436;2023-02-21T03:58:12;48.30;;;15.52;;
74044;SDS011;62389;51.412;5.436;2023-02-21T04:00:37;46.08;;;16.00;;
74044;SDS011;62389;51.412;5.436;2023-02-21T04:03:02;42.58;;;15.82;;
74044;SDS011;62389;51.412;5.436;2023-02-21T04:05:28;46.17;;;15.27;;
74044;SDS011;62389;51.412;5.436;2023-02-21T04:07:53;44.70;;;15.00;;
74044;SDS011;62389;51.412;5.436;2023-02-21T04:10:19;44.97;;;15.55;;
74044;SDS011;62389;51.412;5.436;2023-02-21T04:12:44;47.30;;;16.15;;
74044;SDS011;62389;51.412;5.436;2023-02-21T04:15:10;52.72;;;17.35;;
74044;SDS011;62389;51.412;5.436;2023-02-21T04:17:36;52.42;;;16.52;;
74044;SDS011;62389;51.412;5.436;2023-02-21T04:20:01;49.38;;;18.38;;
74044;SDS011;62389;51.412;5.436;2023-02-21T04:22:27;41.85;;;15.68;;
74044;SDS011;62389;51.412;5.436;2023-02-21T04:24:52;44.72;;;16.08;;
74044;SDS011;62389;51.412;5.436;2023-02-21T04:27:18;48.67;;;16.30;;
74044;SDS011;62389;51.412;5.436;2023-02-21T04:29:43;53.00;;;16.55;;
74044;SDS011;62389;51.412;5.436;2023-02-21T04:32:09;50.20;;;16.02;;
74044;SDS011;62389;51.412;5.436;2023-02-21T04:34:35;60.42;;;19.15;;
74044;SDS011;62389;51.412;5.436;2023-02-21T04:37:00;55.35;;;17.73;;
74044;SDS011;62389;51.412;5.436;2023-02-21T04:39:26;44.45;;;16.02;;
74044;SDS011;62389;51.412;5.436;2023-02-21T04:41:51;54.33;;;18.17;;
74044;SDS011;62389;51.412;5.436;2023-02-21T04:44:16;49.17;;;17.23;;
74044;SDS011;62389;51.412;5.436;2023-02-21T04:46:42;49.90;;;15.48;;
74044;SDS011;62389;51.412;5.436;2023-02-21T04:49:08;55.58;;;17.83;;
74044;SDS011;62389;51.412;5.436;2023-02-21T04:51:35;62.45;;;19.33;;
74044;SDS011;62389;51.412;5.436;2023-02-21T04:54:01;48.90;;;15.93;;
74044;SDS011;62389;51.412;5.436;2023-02-21T04:56:26;47.53;;;15.57;;
74044;SDS011;62389;51.412;5.436;2023-02-21T04:58:52;59.17;;;18.75;;
74044;SDS011;62389;51.412;5.436;2023-02-21T05:01:19;50.20;;;15.40;;
74044;SDS011;62389;51.412;5.436;2023-02-21T05:03:45;49.00;;;15.13;;
74044;SDS011;62389;51.412;5.436;2023-02-21T05:06:17;48.85;;;16.20;;
74044;SDS011;62389;51.412;5.436;2023-02-21T05:08:47;51.10;;;16.30;;
74044;SDS011;62389;51.412;5.436;2023-02-21T05:11:13;45.30;;;15.75;;
74044;SDS011;62389;51.412;5.436;2023-02-21T05:13:38;46.10;;;16.58;;
74044;SDS011;62389;51.412;5.436;2023-02-21T05:16:03;55.40;;;16.98;;
74044;SDS011;62389;51.412;5.436;2023-02-21T05:18:29;53.42;;;17.52;;
74044;SDS011;62389;51.412;5.436;2023-02-21T05:20:54;52.03;;;17.33;;
74044;SDS011;62389;51.412;5.436;2023-02-21T05:23:20;53.35;;;17.08;;
74044;SDS011;62389;51.412;5.436;2023-02-21T05:25:58;51.58;;;16.95;;
74044;SDS011;62389;51.412;5.436;2023-02-21T05:28:37;54.20;;;16.63;;
74044;SDS011;62389;51.412;5.436;2023-02-21T05:33:29;51.60;;;16.73;;
74044;SDS011;62389;51.412;5.436;2023-02-21T05:35:55;52.80;;;16.92;;
74044;SDS011;62389;51.412;5.436;2023-02-21T05:38:21;46.75;;;15.52;;
74044;SDS011;62389;51.412;5.436;2023-02-21T05:40:47;49.20;;;16.08;;
74044;SDS011;62389;51.412;5.436;2023-02-21T05:43:13;53.10;;;16.92;;
74044;SDS011;62389;51.412;5.436;2023-02-21T05:45:39;46.60;;;14.18;;
74044;SDS011;62389;51.412;5.436;2023-02-21T05:48:04;48.22;;;16.95;;
74044;SDS011;62389;51.412;5.436;2023-02-21T05:50:30;47.80;;;16.30;;
74044;SDS011;62389;51.412;5.436;2023-02-21T05:52:56;48.53;;;15.00;;
74044;SDS011;62389;51.412;5.436;2023-02-21T05:55:22;42.97;;;15.25;;
74044;SDS011;62389;51.412;5.436;2023-02-21T05:57:47;44.00;;;14.90;;
74044;SDS011;62389;51.412;5.436;2023-02-21T06:00:20;41.97;;;14.43;;
74044;SDS011;62389;51.412;5.436;2023-02-21T06:02:48;41.92;;;14.15;;
74044;SDS011;62389;51.412;5.436;2023-02-21T06:05:15;46.83;;;14.70;;
74044;SDS011;62389;51.412;5.436;2023-02-21T06:07:40;38.45;;;13.35;;
74044;SDS011;62389;51.412;5.436;2023-02-21T06:10:06;35.55;;;12.93;;
74044;SDS011;62389;51.412;5.436;2023-02-21T06:12:31;40.47;;;12.82;;
74044;SDS011;62389;51.412;5.436;2023-02-21T06:14:57;43.17;;;13.88;;
74044;SDS011;62389;51.412;5.436;2023-02-21T06:17:23;38.33;;;12.50;;
74044;SDS011;62389;51.412;5.436;2023-02-21T06:19:48;40.15;;;12.38;;
74044;SDS011;62389;51.412;5.436;2023-02-21T06:22:13;44.10;;;13.32;;
74044;SDS011;62389;51.412;5.436;2023-02-21T06:24:39;35.28;;;13.30;;
74044;SDS011;62389;51.412;5.436;2023-02-21T06:27:04;40.13;;;13.55;;
74044;SDS011;62389;51.412;5.436;2023-02-21T06:29:30;40.00;;;12.95;;
74044;SDS011;62389;51.412;5.436;2023-02-21T06:31:59;39.67;;;12.90;;
74044;SDS011;62389;51.412;5.436;2023-02-21T06:34:26;34.65;;;13.43;;
74044;SDS011;62389;51.412;5.436;2023-02-21T06:36:55;41.70;;;12.48;;
74044;SDS011;62389;51.412;5.436;2023-02-21T06:39:21;38.95;;;14.68;;
74044;SDS011;62389;51.412;5.436;2023-02-21T06:41:48;38.05;;;12.25;;
74044;SDS011;62389;51.412;5.436;2023-02-21T06:46:40;35.63;;;11.25;;
74044;SDS011;62389;51.412;5.436;2023-02-21T06:49:06;35.08;;;12.88;;
74044;SDS011;62389;51.412;5.436;2023-02-21T06:51:35;32.80;;;11.80;;
74044;SDS011;62389;51.412;5.436;2023-02-21T06:54:02;31.95;;;10.70;;
74044;SDS011;62389;51.412;5.436;2023-02-21T06:56:27;33.65;;;11.07;;
74044;SDS011;62389;51.412;5.436;2023-02-21T06:58:53;33.40;;;10.43;;
74044;SDS011;62389;51.412;5.436;2023-02-21T07:01:19;31.42;;;12.52;;
74044;SDS011;62389;51.412;5.436;2023-02-21T07:03:44;33.45;;;11.30;;
74044;SDS011;62389;51.412;5.436;2023-02-21T07:06:11;28.33;;;10.60;;
74044;SDS011;62389;51.412;5.436;2023-02-21T07:08:36;28.48;;;9.80;;
74044;SDS011;62389;51.412;5.436;2023-02-21T07:11:02;32.22;;;10.80;;
74044;SDS011;62389;51.412;5.436;2023-02-21T07:13:27;30.58;;;10.70;;
74044;SDS011;62389;51.412;5.436;2023-02-21T07:15:53;29.08;;;11.02;;
74044;SDS011;62389;51.412;5.436;2023-02-21T07:18:18;29.83;;;10.73;;
74044;SDS011;62389;51.412;5.436;2023-02-21T07:20:43;28.15;;;9.88;;
74044;SDS011;62389;51.412;5.436;2023-02-21T07:23:09;30.42;;;10.57;;
74044;SDS011;62389;51.412;5.436;2023-02-21T07:25:34;30.52;;;10.77;;
74044;SDS011;62389;51.412;5.436;2023-02-21T07:27:59;25.85;;;10.80;;
74044;SDS011;62389;51.412;5.436;2023-02-21T07:30:26;30.80;;;10.73;;
74044;SDS011;62389;51.412;5.436;2023-02-21T07:32:53;31.10;;;9.65;;
74044;SDS011;62389;51.412;5.436;2023-02-21T07:35:19;28.42;;;10.75;;
74044;SDS011;62389;51.412;5.436;2023-02-21T07:37:45;25.02;;;9.50;;
74044;SDS011;62389;51.412;5.436;2023-02-21T07:40:10;31.98;;;10.18;;
74044;SDS011;62389;51.412;5.436;2023-02-21T07:42:35;29.35;;;10.70;;
74044;SDS011;62389;51.412;5.436;2023-02-21T07:45:01;27.88;;;10.02;;
74044;SDS011;62389;51.412;5.436;2023-02-21T07:47:27;28.15;;;10.27;;
74044;SDS011;62389;51.412;5.436;2023-02-21T07:49:53;34.45;;;12.05;;
74044;SDS011;62389;51.412;5.436;2023-02-21T07:52:19;34.50;;;11.32;;
74044;SDS011;62389;51.412;5.436;2023-02-21T07:54:45;33.13;;;10.75;;
74044;SDS011;62389;51.412;5.436;2023-02-21T07:57:11;34.47;;;10.75;;
74044;SDS011;62389;51.412;5.436;2023-02-21T07:59:36;34.17;;;10.48;;
74044;SDS011;62389;51.412;5.436;2023-02-21T08:02:02;33.20;;;10.32;;
74044;SDS011;62389;51.412;5.436;2023-02-21T08:04:28;29.10;;;10.40;;
74044;SDS011;62389;51.412;5.436;2023-02-21T08:06:57;32.03;;;9.63;;
74044;SDS011;62389;51.412;5.436;2023-02-21T08:09:24;31.58;;;11.27;;
74044;SDS011;62389;51.412;5.436;2023-02-21T08:11:49;30.30;;;10.75;;
74044;SDS011;62389;51.412;5.436;2023-02-21T08:14:14;26.23;;;9.75;;
74044;SDS011;62389;51.412;5.436;2023-02-21T08:16:40;25.73;;;8.52;;
74044;SDS011;62389;51.412;5.436;2023-02-21T08:19:05;29.17;;;8.48;;
74044;SDS011;62389;51.412;5.436;2023-02-21T08:21:31;31.33;;;9.80;;
74044;SDS011;62389;51.412;5.436;2023-02-21T08:23:57;28.83;;;9.90;;
74044;SDS011;62389;51.412;5.436;2023-02-21T08:26:23;26.63;;;9.65;;
74044;SDS011;62389;51.412;5.436;2023-02-21T08:28:49;26.65;;;9.77;;
74044;SDS011;62389;51.412;5.436;2023-02-21T08:31:14;21.52;;;7.35;;
74044;SDS011;62389;51.412;5.436;2023-02-21T08:33:39;24.45;;;8.73;;
74044;SDS011;62389;51.412;5.436;2023-02-21T08:36:05;26.98;;;9.25;;
74044;SDS011;62389;51.412;5.436;2023-02-21T08:38:31;25.20;;;7.88;;
74044;SDS011;62389;51.412;5.436;2023-02-21T08:40:56;27.08;;;8.95;;
74044;SDS011;62389;51.412;5.436;2023-02-21T08:43:22;24.83;;;8.50;;
74044;SDS011;62389;51.412;5.436;2023-02-21T08:45:48;23.20;;;8.10;;
74044;SDS011;62389;51.412;5.436;2023-02-21T08:48:13;27.10;;;8.88;;
74044;SDS011;62389;51.412;5.436;2023-02-21T08:50:39;27.45;;;9.63;;
74044;SDS011;62389;51.412;5.436;2023-02-21T08:53:04;22.17;;;9.27;;
74044;SDS011;62389;51.412;5.436;2023-02-21T08:55:30;24.50;;;8.48;;
74044;SDS011;62389;51.412;5.436;2023-02-21T08:57:55;22.60;;;9.10;;
74044;SDS011;62389;51.412;5.436;2023-02-21T09:00:21;24.77;;;9.20;;
74044;SDS011;62389;51.412;5.436;2023-02-21T09:02:51;24.42;;;8.70;;
74044;SDS011;62389;51.412;5.436;2023-02-21T09:05:20;22.13;;;8.85;;
74044;SDS011;62389;51.412;5.436;2023-02-21T09:07:49;28.13;;;8.98;;
74044;SDS011;62389;51.412;5.436;2023-02-21T09:10:15;20.45;;;8.38;;
74044;SDS011;62389;51.412;5.436;2023-02-21T09:12:41;27.85;;;8.77;;
74044;SDS011;62389;51.412;5.436;2023-02-21T09:15:07;25.13;;;9.02;;
74044;SDS011;62389;51.412;5.436;2023-02-21T09:17:33;21.55;;;7.80;;
74044;SDS011;62389;51.412;5.436;2023-02-21T09:19:59;23.83;;;7.30;;
74044;SDS011;62389;51.412;5.436;2023-02-21T09:22:26;28.75;;;9.70;;
74044;SDS011;62389;51.412;5.436;2023-02-21T09:24:52;25.17;;;8.20;;
74044;SDS011;62389;51.412;5.436;2023-02-21T09:27:17;20.52;;;8.20;;
74044;SDS011;62389;51.412;5.436;2023-02-21T09:29:43;23.75;;;7.70;;
74044;SDS011;62389;51.412;5.436;2023-02-21T09:32:09;21.90;;;7.53;;
74044;SDS011;62389;51.412;5.436;2023-02-21T09:34:34;23.02;;;8.77;;
74044;SDS011;62389;51.412;5.436;2023-02-21T09:37:03;20.88;;;8.50;;
74044;SDS011;62389;51.412;5.436;2023-02-21T09:39:29;21.98;;;8.40;;
74044;SDS011;62389;51.412;5.436;2023-02-21T09:41:55;23.08;;;8.90;;
74044;SDS011;62389;51.412;5.436;2023-02-21T09:44:25;23.35;;;8.10;;
74044;SDS011;62389;51.412;5.436;2023-02-21T09:46:54;20.98;;;7.95;;
74044;SDS011;62389;51.412;5.436;2023-02-21T09:52:00;21.92;;;8.05;;
74044;SDS011;62389;51.412;5.436;2023-02-21T09:54:34;21.13;;;8.40;;
74044;SDS011;62389;51.412;5.436;2023-02-21T09:57:08;23.90;;;8.45;;
74044;SDS011;62389;51.412;5.436;2023-02-21T09:59:37;19.15;;;7.68;;
74044;SDS011;62389;51.412;5.436;2023-02-21T10:02:16;18.92;;;8.02;;
74044;SDS011;62389;51.412;5.436;2023-02-21T10:08:02;22.30;;;8.43;;
74044;SDS011;62389;51.412;5.436;2023-02-21T10:16:01;20.98;;;8.02;;
74044;SDS011;62389;51.412;5.436;2023-02-21T10:18:39;19.55;;;7.70;;
74044;SDS011;62389;51.412;5.436;2023-02-21T10:23:58;19.27;;;7.63;;
74044;SDS011;62389;51.412;5.436;2023-02-21T10:26:29;18.40;;;6.80;;
74044;SDS011;62389;51.412;5.436;2023-02-21T10:28:59;16.88;;;7.95;;
74044;SDS011;62389;51.412;5.436;2023-02-21T10:31:35;17.00;;;6.82;;
74044;SDS011;62389;51.412;5.436;2023-02-21T10:34:03;16.85;;;6.22;;
74044;SDS011;62389;51.412;5.436;2023-02-21T10:36:31;19.30;;;7.43;;
74044;SDS011;62389;51.412;5.436;2023-02-21T10:41:39;16.83;;;6.70;;
74044;SDS011;62389;51.412;5.436;2023-02-21T10:49:32;19.35;;;7.18;;
74044;SDS011;62389;51.412;5.436;2023-02-21T10:54:28;14.68;;;5.90;;
74044;SDS011;62389;51.412;5.436;2023-02-21T10:56:53;17.02;;;6.82;;
74044;SDS011;62389;51.412;5.436;2023-02-21T10:59:26;20.27;;;7.32;;
74044;SDS011;62389;51.412;5.436;2023-02-21T11:01:54;21.08;;;6.72;;
74044;SDS011;62389;51.412;5.436;2023-02-21T11:04:26;20.77;;;7.10;;
74044;SDS011;62389;51.412;5.436;2023-02-21T11:17:16;20.45;;;7.20;;
74044;SDS011;62389;51.412;5.436;2023-02-21T11:19:51;17.40;;;6.70;;
74044;SDS011;62389;51.412;5.436;2023-02-21T11:22:19;18.40;;;7.15;;
74044;SDS011;62389;51.412;5.436;2023-02-21T11:24:58;19.65;;;7.05;;
74044;SDS011;62389;51.412;5.436;2023-02-21T11:27:28;18.58;;;6.13;;
74044;SDS011;62389;51.412;5.436;2023-02-21T11:29:55;21.35;;;6.53;;
74044;SDS011;62389;51.412;5.436;2023-02-21T11:32:40;34.50;;;7.53;;
74044;SDS011;62389;51.412;5.436;2023-02-21T11:38:00;15.70;;;5.57;;
74044;SDS011;62389;51.412;5.436;2023-02-21T11:40:29;14.95;;;5.68;;
74044;SDS011;62389;51.412;5.436;2023-02-21T11:43:30;16.95;;;6.60;;
74044;SDS011;62389;51.412;5.436;2023-02-21T11:54:13;14.75;;;5.65;;
74044;SDS011;62389;51.412;5.436;2023-02-21T12:13:19;13.60;;;5.10;;
74044;SDS011;62389;51.412;5.436;2023-02-21T12:24:13;15.50;;;5.95;;
74044;SDS011;62389;51.412;5.436;2023-02-21T12:41:00;12.85;;;4.93;;
74044;SDS011;62389;51.412;5.436;2023-02-21T12:43:57;13.27;;;5.38;;
74044;SDS011;62389;51.412;5.436;2023-02-21T12:46:35;11.90;;;5.45;;
74044;SDS011;62389;51.412;5.436;2023-02-21T12:51:39;10.38;;;4.20;;
74044;SDS011;62389;51.412;5.436;2023-02-21T12:54:10;11.18;;;4.00;;
74044;SDS011;62389;51.412;5.436;2023-02-21T12:56:46;10.07;;;4.55;;
74044;SDS011;62389;51.412;5.436;2023-02-21T12:59:21;8.35;;;3.65;;
74044;SDS011;62389;51.412;5.436;2023-02-21T13:02:00;8.48;;;3.70;;
74044;SDS011;62389;51.412;5.436;2023-02-21T13:12:27;8.68;;;4.15;;
74044;SDS011;62389;51.412;5.436;2023-02-21T13:18:06;8.25;;;3.35;;
74044;SDS011;62389;51.412;5.436;2023-02-21T13:20:42;8.30;;;3.53;;
74044;SDS011;62389;51.412;5.436;2023-02-21T13:23:10;9.02;;;4.07;;
74044;SDS011;62389;51.412;5.436;2023-02-21T13:29:01;8.98;;;3.90;;
74044;SDS011;62389;51.412;5.436;2023-02-21T13:31:28;9.23;;;4.57;;
74044;SDS011;62389;51.412;5.436;2023-02-21T13:34:05;30.67;;;5.28;;
74044;SDS011;62389;51.412;5.436;2023-02-21T13:41:33;8.10;;;3.80;;
74044;SDS011;62389;51.412;5.436;2023-02-21T13:44:07;9.38;;;3.78;;
74044;SDS011;62389;51.412;5.436;2023-02-21T14:03:01;12.25;;;5.38;;
74044;SDS011;62389;51.412;5.436;2023-02-21T14:08:14;12.95;;;5.10;;
74044;SDS011;62389;51.412;5.436;2023-02-21T14:11:34;13.15;;;5.55;;
74044;SDS011;62389;51.412;5.436;2023-02-21T14:13:38;12.40;;;4.65;;
74044;SDS011;62389;51.412;5.436;2023-02-21T14:19:11;16.10;;;6.70;;
74044;SDS011;62389;51.412;5.436;2023-02-21T14:21:55;12.73;;;5.28;;
74044;SDS011;62389;51.412;5.436;2023-02-21T14:24:27;13.73;;;5.38;;
74044;SDS011;62389;51.412;5.436;2023-02-21T14:29:43;13.52;;;5.38;;
74044;SDS011;62389;51.412;5.436;2023-02-21T14:32:42;10.70;;;4.80;;
74044;SDS011;62389;51.412;5.436;2023-02-21T14:37:57;13.65;;;5.53;;
74044;SDS011;62389;51.412;5.436;2023-02-21T14:51:42;17.08;;;6.85;;
74044;SDS011;62389;51.412;5.436;2023-02-21T15:05:05;18.17;;;8.32;;
74044;SDS011;62389;51.412;5.436;2023-02-21T15:07:49;17.88;;;6.82;;
74044;SDS011;62389;51.412;5.436;2023-02-21T15:12:56;16.52;;;7.57;;
74044;SDS011;62389;51.412;5.436;2023-02-21T15:17:55;18.45;;;7.30;;
74044;SDS011;62389;51.412;5.436;2023-02-21T15:20:32;20.08;;;7.65;;
74044;SDS011;62389;51.412;5.436;2023-02-21T15:23:09;18.55;;;8.18;;
74044;SDS011;62389;51.412;5.436;2023-02-21T15:25:39;20.65;;;8.35;;
74044;SDS011;62389;51.412;5.436;2023-02-21T15:28:06;19.83;;;8.48;;
74044;SDS011;62389;51.412;5.436;2023-02-21T15:30:52;22.08;;;8.55;;
74044;SDS011;62389;51.412;5.436;2023-02-21T15:33:23;22.88;;;8.88;;
74044;SDS011;62389;51.412;5.436;2023-02-21T15:38:22;22.02;;;9.15;;
74044;SDS011;62389;51.412;5.436;2023-02-21T15:41:13;26.65;;;9.65;;
74044;SDS011;62389;51.412;5.436;2023-02-21T15:43:53;52.40;;;11.18;;
74044;SDS011;62389;51.412;5.436;2023-02-21T15:46:24;20.25;;;8.65;;
74044;SDS011;62389;51.412;5.436;2023-02-21T15:48:54;21.40;;;9.45;;
74044;SDS011;62389;51.412;5.436;2023-02-21T15:51:23;22.63;;;8.38;;
74044;SDS011;62389;51.412;5.436;2023-02-21T15:54:20;42.15;;;9.82;;
74044;SDS011;62389;51.412;5.436;2023-02-21T15:56:59;18.48;;;7.78;;
74044;SDS011;62389;51.412;5.436;2023-02-21T15:59:37;20.10;;;8.07;;
74044;SDS011;62389;51.412;5.436;2023-02-21T16:04:35;17.55;;;7.35;;
74044;SDS011;62389;51.412;5.436;2023-02-21T16:07:19;21.33;;;8.57;;
74044;SDS011;62389;51.412;5.436;2023-02-21T16:10:00;21.08;;;8.65;;
74044;SDS011;62389;51.412;5.436;2023-02-21T16:12:42;19.55;;;7.28;;
74044;SDS011;62389;51.412;5.436;2023-02-21T16:15:26;20.65;;;8.77;;
74044;SDS011;62389;51.412;5.436;2023-02-21T16:17:55;15.15;;;6.97;;
74044;SDS011;62389;51.412;5.436;2023-02-21T16:20:27;18.08;;;7.95;;
74044;SDS011;62389;51.412;5.436;2023-02-21T16:23:39;19.73;;;8.23;;
74044;SDS011;62389;51.412;5.436;2023-02-21T16:26:18;19.85;;;7.97;;
74044;SDS011;62389;51.412;5.436;2023-02-21T16:28:52;19.85;;;7.75;;
74044;SDS011;62389;51.412;5.436;2023-02-21T16:31:26;20.23;;;8.35;;
74044;SDS011;62389;51.412;5.436;2023-02-21T16:33:53;20.02;;;8.13;;
74044;SDS011;62389;51.412;5.436;2023-02-21T16:36:23;19.63;;;7.43;;
74044;SDS011;62389;51.412;5.436;2023-02-21T16:38:51;18.42;;;7.25;;
74044;SDS011;62389;51.412;5.436;2023-02-21T16:41:17;20.38;;;9.75;;
74044;SDS011;62389;51.412;5.436;2023-02-21T16:43:43;22.15;;;7.85;;
74044;SDS011;62389;51.412;5.436;2023-02-21T16:46:09;18.48;;;7.70;;
74044;SDS011;62389;51.412;5.436;2023-02-21T16:48:35;19.60;;;7.82;;
74044;SDS011;62389;51.412;5.436;2023-02-21T16:51:01;20.83;;;8.10;;
74044;SDS011;62389;51.412;5.436;2023-02-21T16:53:37;19.60;;;8.07;;
74044;SDS011;62389;51.412;5.436;2023-02-21T16:56:03;21.45;;;8.55;;
74044;SDS011;62389;51.412;5.436;2023-02-21T16:58:30;19.48;;;8.40;;
74044;SDS011;62389;51.412;5.436;2023-02-21T17:01:01;24.45;;;10.02;;
74044;SDS011;62389;51.412;5.436;2023-02-21T17:03:29;20.73;;;8.60;;
74044;SDS011;62389;51.412;5.436;2023-02-21T17:05:55;26.88;;;9.40;;
74044;SDS011;62389;51.412;5.436;2023-02-21T17:08:22;26.58;;;9.98;;
74044;SDS011;62389;51.412;5.436;2023-02-21T17:10:49;25.55;;;10.10;;
74044;SDS011;62389;51.412;5.436;2023-02-21T17:13:14;24.25;;;9.60;;
74044;SDS011;62389;51.412;5.436;2023-02-21T17:15:39;23.48;;;9.98;;
74044;SDS011;62389;51.412;5.436;2023-02-21T17:18:05;25.52;;;10.82;;
74044;SDS011;62389;51.412;5.436;2023-02-21T17:20:30;22.70;;;9.05;;
74044;SDS011;62389;51.412;5.436;2023-02-21T17:22:56;28.10;;;11.32;;
74044;SDS011;62389;51.412;5.436;2023-02-21T17:25:25;23.48;;;8.88;;
74044;SDS011;62389;51.412;5.436;2023-02-21T17:27:51;30.80;;;11.70;;
74044;SDS011;62389;51.412;5.436;2023-02-21T17:30:17;26.70;;;10.63;;
74044;SDS011;62389;51.412;5.436;2023-02-21T17:32:44;27.67;;;9.63;;
74044;SDS011;62389;51.412;5.436;2023-02-21T17:35:14;25.15;;;9.70;;
74044;SDS011;62389;51.412;5.436;2023-02-21T17:37:41;24.40;;;10.30;;
74044;SDS011;62389;51.412;5.436;2023-02-21T17:40:08;25.52;;;10.88;;
74044;SDS011;62389;51.412;5.436;2023-02-21T17:45:00;26.40;;;10.20;;
74044;SDS011;62389;51.412;5.436;2023-02-21T17:47:26;29.42;;;10.57;;
74044;SDS011;62389;51.412;5.436;2023-02-21T17:49:52;29.60;;;10.27;;
74044;SDS011;62389;51.412;5.436;2023-02-21T17:52:18;29.23;;;11.20;;
74044;SDS011;62389;51.412;5.436;2023-02-21T17:54:45;25.50;;;11.20;;
74044;SDS011;62389;51.412;5.436;2023-02-21T17:57:10;22.77;;;9.13;;
74044;SDS011;62389;51.412;5.436;2023-02-21T17:59:36;29.33;;;10.70;;
74044;SDS011;62389;51.412;5.436;2023-02-21T18:02:02;24.90;;;10.45;;
74044;SDS011;62389;51.412;5.436;2023-02-21T18:04:29;28.13;;;11.35;;
74044;SDS011;62389;51.412;5.436;2023-02-21T18:06:55;31.38;;;11.85;;
74044;SDS011;62389;51.412;5.436;2023-02-21T18:09:22;29.20;;;10.77;;
74044;SDS011;62389;51.412;5.436;2023-02-21T18:11:51;30.38;;;11.82;;
74044;SDS011;62389;51.412;5.436;2023-02-21T18:14:19;32.67;;;12.30;;
74044;SDS011;62389;51.412;5.436;2023-02-21T18:16:46;31.10;;;11.63;;
74044;SDS011;62389;51.412;5.436;2023-02-21T18:19:12;29.80;;;10.95;;
74044;SDS011;62389;51.412;5.436;2023-02-21T18:21:39;27.83;;;10.48;;
74044;SDS011;62389;51.412;5.436;2023-02-21T18:24:08;29.85;;;12.00;;
74044;SDS011;62389;51.412;5.436;2023-02-21T18:26:35;31.88;;;11.10;;